createdAt,value
2018-04-30T00:01:37.165Z,5.43
2018-04-30T00:04:04.776Z,5.37
2018-04-30T00:06:33.177Z,5.53
2018-04-30T00:09:00.751Z,5.63
2018-04-30T00:11:28.381Z,5.23
2018-04-30T00:13:56.781Z,5.23
2018-04-30T00:16:24.434Z,5.53
2018-04-30T00:18:52.074Z,5.33
2018-04-30T00:21:20.423Z,5.40
2018-04-30T00:23:48.061Z,5.30
2018-04-30T00:26:15.679Z,5.50
2018-04-30T00:28:44.075Z,5.73
2018-04-30T00:31:12.255Z,5.37
2018-04-30T00:33:39.940Z,5.70
2018-04-30T00:36:08.311Z,5.67
2018-04-30T00:38:35.926Z,6.10
2018-04-30T00:41:04.315Z,5.80
2018-04-30T00:43:31.941Z,5.77
2018-04-30T00:45:59.564Z,6.07
2018-04-30T00:48:27.139Z,6.50
2018-04-30T00:50:54.867Z,6.77
2018-04-30T00:53:22.454Z,6.47
2018-04-30T00:55:50.137Z,6.47
2018-04-30T00:58:17.771Z,7.43
2018-04-30T01:00:45.509Z,7.23
2018-04-30T01:03:13.180Z,7.23
2018-04-30T01:05:40.787Z,7.20
2018-04-30T01:08:08.484Z,7.40
2018-04-30T01:10:37.334Z,7.63
2018-04-30T01:13:05.013Z,7.93
2018-04-30T01:15:33.455Z,8.13
2018-04-30T01:18:01.452Z,8.30
2018-04-30T01:20:29.068Z,8.47
2018-04-30T01:22:56.717Z,8.40
2018-04-30T01:25:24.341Z,8.60
2018-04-30T01:27:51.947Z,8.43
2018-04-30T01:30:19.614Z,8.10
2018-04-30T01:32:47.889Z,9.20
2018-04-30T01:35:15.566Z,9.40
2018-04-30T01:37:43.225Z,9.20
2018-04-30T01:40:10.816Z,8.43
2018-04-30T01:42:39.254Z,9.23
2018-04-30T01:45:06.841Z,9.80
2018-04-30T01:47:34.434Z,9.70
2018-04-30T01:50:02.840Z,8.83
2018-04-30T01:52:30.467Z,9.47
2018-04-30T01:54:58.921Z,10.37
2018-04-30T01:57:26.512Z,9.57
2018-04-30T01:59:54.912Z,9.93
2018-04-30T02:02:22.550Z,9.93
2018-04-30T02:04:50.917Z,10.27
2018-04-30T02:07:19.330Z,10.60
2018-04-30T02:09:46.964Z,9.87
2018-04-30T02:12:15.394Z,10.07
2018-04-30T02:14:43.026Z,9.90
2018-04-30T02:17:10.674Z,10.17
2018-04-30T02:19:38.425Z,9.87
2018-04-30T02:22:06.789Z,10.23
2018-04-30T02:24:35.201Z,10.27
2018-04-30T02:27:02.849Z,10.20
2018-04-30T02:29:31.452Z,10.37
2018-04-30T02:31:59.153Z,10.17
2018-04-30T02:34:26.801Z,10.60
2018-04-30T02:36:54.424Z,10.17
2018-04-30T02:39:23.633Z,10.17
2018-04-30T02:41:51.315Z,10.57
2018-04-30T02:44:18.988Z,10.43
2018-04-30T02:46:46.675Z,10.87
2018-04-30T02:49:15.103Z,10.73
2018-04-30T02:51:42.753Z,10.50
2018-04-30T02:54:10.341Z,10.07
2018-04-30T02:56:38.019Z,10.03
2018-04-30T02:59:05.652Z,10.53
2018-04-30T03:01:33.280Z,10.27
2018-04-30T03:04:01.719Z,9.40
2018-04-30T03:06:30.132Z,10.90
2018-04-30T03:08:58.555Z,9.87
2018-04-30T03:11:26.206Z,9.87
2018-04-30T03:13:53.835Z,9.83
2018-04-30T03:16:22.216Z,9.97
2018-04-30T03:18:49.938Z,9.37
2018-04-30T03:21:17.564Z,9.33
2018-04-30T03:23:45.248Z,9.57
2018-04-30T03:26:12.894Z,9.00
2018-04-30T03:28:40.561Z,9.57
2018-04-30T03:31:08.141Z,9.07
2018-04-30T03:33:35.724Z,9.37
2018-04-30T03:36:03.389Z,9.37
2018-04-30T03:38:31.960Z,9.03
2018-04-30T03:41:00.353Z,8.53
2018-04-30T03:43:28.784Z,8.73
2018-04-30T03:45:56.402Z,8.50
2018-04-30T03:48:24.045Z,8.47
2018-04-30T03:50:52.430Z,8.70
2018-04-30T03:53:21.900Z,8.77
2018-04-30T03:55:49.541Z,8.10
2018-04-30T03:58:17.156Z,8.37
2018-04-30T04:00:57.565Z,8.90
2018-04-30T04:03:37.039Z,8.13
2018-04-30T04:06:18.378Z,7.43
2018-04-30T04:08:45.981Z,7.80
2018-04-30T04:11:13.647Z,7.53
2018-04-30T04:13:42.049Z,7.87
2018-04-30T04:16:10.487Z,7.80
2018-04-30T04:18:38.195Z,7.37
2018-04-30T04:21:05.788Z,7.57
2018-04-30T04:23:33.462Z,7.67
2018-04-30T04:26:01.738Z,7.00
2018-04-30T04:28:29.409Z,7.53
2018-04-30T04:30:57.780Z,7.70
2018-04-30T04:33:25.355Z,7.27
2018-04-30T04:35:53.772Z,7.23
2018-04-30T04:38:22.117Z,6.90
2018-04-30T04:40:50.510Z,7.20
2018-04-30T04:43:18.160Z,7.00
2018-04-30T04:45:46.576Z,7.53
2018-04-30T04:48:14.196Z,7.03
2018-04-30T04:50:42.594Z,7.07
2018-04-30T04:53:11.012Z,7.30
2018-04-30T04:55:38.674Z,6.87
2018-04-30T04:58:06.261Z,7.17
2018-04-30T05:00:34.576Z,7.07
2018-04-30T05:03:02.229Z,6.67
2018-04-30T05:05:29.891Z,7.13
2018-04-30T05:07:57.546Z,6.57
2018-04-30T05:10:25.234Z,6.80
2018-04-30T05:12:52.862Z,7.30
2018-04-30T05:15:21.390Z,6.97
2018-04-30T05:17:48.997Z,6.60
2018-04-30T05:20:16.613Z,6.83
2018-04-30T05:22:44.274Z,6.87
2018-04-30T05:25:11.968Z,7.10
2018-04-30T05:27:39.677Z,6.57
2018-04-30T05:30:07.463Z,6.70
2018-04-30T05:32:36.530Z,8.10
2018-04-30T05:35:04.219Z,7.53
2018-04-30T05:37:31.858Z,6.90
2018-04-30T05:39:59.662Z,7.40
2018-04-30T05:42:27.353Z,7.63
2018-04-30T05:44:55.773Z,6.93
2018-04-30T05:47:23.424Z,7.67
2018-04-30T05:49:51.750Z,7.67
2018-04-30T05:52:19.335Z,7.37
2018-04-30T05:54:47.723Z,7.30
2018-04-30T05:57:16.098Z,8.40
2018-04-30T05:59:44.462Z,7.70
2018-04-30T06:02:12.877Z,7.90
2018-04-30T06:04:40.484Z,7.40
2018-04-30T06:07:08.181Z,7.80
2018-04-30T06:09:35.771Z,7.70
2018-04-30T06:12:03.406Z,7.70
2018-04-30T06:14:31.038Z,7.07
2018-04-30T06:16:59.490Z,8.13
2018-04-30T06:19:27.081Z,7.70
2018-04-30T06:21:55.470Z,7.50
2018-04-30T06:24:23.960Z,7.53
2018-04-30T06:26:51.612Z,7.20
2018-04-30T06:29:19.185Z,7.10
2018-04-30T06:31:46.804Z,7.37
2018-04-30T06:34:14.467Z,6.93
2018-04-30T06:36:42.093Z,7.83
2018-04-30T06:39:09.748Z,7.97
2018-04-30T06:41:37.319Z,7.70
2018-04-30T06:44:04.971Z,7.90
2018-04-30T06:46:32.596Z,7.43
2018-04-30T06:49:01.034Z,7.30
2018-04-30T06:51:28.848Z,7.50
2018-04-30T06:53:56.484Z,8.43
2018-04-30T06:56:24.880Z,8.17
2018-04-30T06:58:52.495Z,7.97
2018-04-30T07:01:20.128Z,6.60
2018-04-30T07:03:47.748Z,7.00
2018-04-30T07:06:15.389Z,7.60
2018-04-30T07:08:43.013Z,7.77
2018-04-30T07:11:11.265Z,7.67
2018-04-30T07:13:38.856Z,7.03
2018-04-30T07:16:06.450Z,7.60
2018-04-30T07:18:34.088Z,7.53
2018-04-30T07:21:01.717Z,7.93
2018-04-30T07:23:30.136Z,7.90
2018-04-30T07:25:57.731Z,7.37
2018-04-30T07:28:26.152Z,7.23
2018-04-30T07:30:54.018Z,7.87
2018-04-30T07:33:21.777Z,8.37
2018-04-30T07:35:49.986Z,7.60
2018-04-30T07:38:17.696Z,8.17
2018-04-30T07:43:19.992Z,7.60
2018-04-30T07:45:47.845Z,7.63
2018-04-30T07:48:15.526Z,8.20
2018-04-30T07:50:43.145Z,7.83
2018-04-30T07:53:11.573Z,8.23
2018-04-30T07:55:39.776Z,8.13
2018-04-30T07:58:07.465Z,8.57
2018-04-30T08:00:35.892Z,8.50
2018-04-30T08:03:03.583Z,8.53
2018-04-30T08:05:31.133Z,9.37
2018-04-30T08:07:58.777Z,8.63
2018-04-30T08:10:26.402Z,8.17
2018-04-30T08:12:54.056Z,8.33
2018-04-30T08:15:21.710Z,8.63
2018-04-30T08:17:49.342Z,8.70
2018-04-30T08:20:16.935Z,8.93
2018-04-30T08:22:45.311Z,9.00
2018-04-30T08:25:13.933Z,8.70
2018-04-30T08:27:41.659Z,8.70
2018-04-30T08:30:09.326Z,9.10
2018-04-30T08:32:36.920Z,9.57
2018-04-30T08:35:04.548Z,9.33
2018-04-30T08:37:32.157Z,8.90
2018-04-30T08:39:59.767Z,9.03
2018-04-30T08:42:27.350Z,8.43
2018-04-30T08:44:54.967Z,9.57
2018-04-30T08:47:22.625Z,9.07
2018-04-30T08:49:51.045Z,9.60
2018-04-30T08:52:18.896Z,9.63
2018-04-30T08:54:46.491Z,9.53
2018-04-30T08:57:14.075Z,9.07
2018-04-30T08:59:42.452Z,9.20
2018-04-30T09:02:10.875Z,9.50
2018-04-30T09:04:38.452Z,9.83
2018-04-30T09:07:06.090Z,9.40
2018-04-30T09:09:35.132Z,8.93
2018-04-30T09:12:02.946Z,9.13
2018-04-30T09:14:30.537Z,9.70
2018-04-30T09:16:58.168Z,10.07
2018-04-30T09:19:25.790Z,9.57
2018-04-30T09:21:54.176Z,10.97
2018-04-30T09:24:22.599Z,14.10
2018-04-30T09:26:50.189Z,10.20
2018-04-30T09:29:17.941Z,8.63
2018-04-30T09:31:45.562Z,8.33
2018-04-30T09:34:13.153Z,8.90
2018-04-30T09:36:41.384Z,8.70
2018-04-30T09:39:08.967Z,7.53
2018-04-30T09:41:36.589Z,7.47
2018-04-30T09:44:04.975Z,8.47
2018-04-30T09:46:33.389Z,7.40
2018-04-30T09:49:01.011Z,7.50
2018-04-30T09:51:29.458Z,7.40
2018-04-30T09:53:57.038Z,7.90
2018-04-30T09:56:24.669Z,8.30
2018-04-30T09:58:52.295Z,9.03
2018-04-30T10:01:19.930Z,8.10
2018-04-30T10:03:48.320Z,9.50
2018-04-30T10:06:16.663Z,8.63
2018-04-30T10:08:44.517Z,9.13
2018-04-30T10:11:12.941Z,8.67
2018-04-30T10:13:40.713Z,8.20
2018-04-30T10:16:09.045Z,9.20
2018-04-30T10:18:38.432Z,9.00
2018-04-30T10:21:06.073Z,9.70
2018-04-30T10:23:33.791Z,9.93
2018-04-30T10:26:01.404Z,9.30
2018-04-30T10:28:29.075Z,8.33
2018-04-30T10:30:56.825Z,8.80
2018-04-30T10:33:24.438Z,7.63
2018-04-30T10:38:26.727Z,6.43
2018-04-30T10:40:55.102Z,6.10
2018-04-30T10:43:23.452Z,5.50
2018-04-30T10:45:52.004Z,5.57
2018-04-30T10:48:19.516Z,4.60
2018-04-30T10:50:47.992Z,3.77
2018-04-30T10:53:16.335Z,3.70
2018-04-30T10:55:44.444Z,2.90
2018-04-30T10:58:12.823Z,3.30
2018-04-30T11:00:41.196Z,2.97
2018-04-30T11:03:09.577Z,3.20
2018-04-30T11:05:37.980Z,3.10
2018-04-30T11:08:05.555Z,3.90
2018-04-30T11:10:33.189Z,2.97
2018-04-30T11:13:00.834Z,3.17
2018-04-30T11:15:29.184Z,3.37
2018-04-30T11:17:56.804Z,3.20
2018-04-30T11:20:24.468Z,3.00
2018-04-30T11:22:52.100Z,3.43
2018-04-30T11:25:20.704Z,2.90
2018-04-30T11:27:48.311Z,2.83
2018-04-30T11:30:15.964Z,3.00
2018-04-30T11:32:43.585Z,2.47
2018-04-30T11:35:11.186Z,2.60
2018-04-30T11:37:38.813Z,2.40
2018-04-30T11:40:06.463Z,2.57
2018-04-30T11:44:55.888Z,2.30
2018-04-30T11:47:24.255Z,2.87
2018-04-30T11:49:51.861Z,3.03
2018-04-30T11:52:19.522Z,2.63
2018-04-30T11:54:48.050Z,2.20
2018-04-30T11:57:15.644Z,2.30
2018-04-30T11:59:43.285Z,2.43
2018-04-30T12:02:10.895Z,2.30
2018-04-30T12:04:39.274Z,2.27
2018-04-30T12:07:06.880Z,2.20
2018-04-30T12:09:34.535Z,2.13
2018-04-30T12:12:02.245Z,1.80
2018-04-30T12:14:30.597Z,1.87
2018-04-30T12:16:58.238Z,1.70
2018-04-30T12:19:25.905Z,1.40
2018-04-30T12:21:53.628Z,1.30
2018-04-30T12:24:21.150Z,1.40
2018-04-30T12:26:48.828Z,1.80
2018-04-30T12:29:16.467Z,1.83
2018-04-30T12:31:44.051Z,1.70
2018-04-30T12:34:12.453Z,2.07
2018-04-30T12:36:40.113Z,1.80
2018-04-30T12:39:07.990Z,1.60
2018-04-30T12:41:35.568Z,1.50
2018-04-30T12:44:03.222Z,1.63
2018-04-30T12:46:30.855Z,1.30
2018-04-30T12:48:58.507Z,1.60
2018-04-30T12:51:26.133Z,1.20
2018-04-30T12:53:53.831Z,1.90
2018-04-30T12:56:21.569Z,1.60
2018-04-30T12:58:49.978Z,1.53
2018-04-30T13:01:17.593Z,1.20
2018-04-30T13:03:46.757Z,1.90
2018-04-30T13:06:14.371Z,1.30
2018-04-30T13:08:42.820Z,1.20
2018-04-30T13:11:10.429Z,5.10
2018-04-30T13:13:38.088Z,2.13
2018-04-30T13:16:06.498Z,2.43
2018-04-30T13:18:34.161Z,1.80
2018-04-30T13:21:02.155Z,1.90
2018-04-30T13:23:29.761Z,1.80
2018-04-30T13:25:57.380Z,1.73
2018-04-30T13:28:25.729Z,1.37
2018-04-30T13:30:53.941Z,1.50
2018-04-30T13:33:22.332Z,1.47
2018-04-30T13:36:00.625Z,1.70
2018-04-30T13:38:28.284Z,1.50
2018-04-30T13:40:55.979Z,1.50
2018-04-30T13:43:24.963Z,1.00
2018-04-30T13:45:53.362Z,1.27
2018-04-30T13:48:23.006Z,1.40
2018-04-30T13:50:50.831Z,1.50
2018-04-30T13:53:18.500Z,1.23
2018-04-30T13:55:46.184Z,2.10
2018-04-30T13:58:13.810Z,1.60
2018-04-30T14:00:41.421Z,1.50
2018-04-30T14:03:09.759Z,1.63
2018-04-30T14:05:37.388Z,1.23
2018-04-30T14:08:05.811Z,1.80
2018-04-30T14:10:33.452Z,1.37
2018-04-30T14:13:01.025Z,3.30
2018-04-30T14:15:28.699Z,1.90
2018-04-30T14:17:56.370Z,1.80
2018-04-30T14:20:24.072Z,2.23
2018-04-30T14:22:52.433Z,1.67
2018-04-30T14:25:20.072Z,2.40
2018-04-30T14:27:47.655Z,1.50
2018-04-30T14:30:16.815Z,1.57
2018-04-30T14:32:44.428Z,2.10
2018-04-30T14:35:12.779Z,1.90
2018-04-30T14:37:40.424Z,1.93
2018-04-30T14:40:08.046Z,1.43
2018-04-30T14:42:35.735Z,1.27
2018-04-30T14:45:03.319Z,1.00
2018-04-30T14:47:30.901Z,1.23
2018-04-30T14:49:59.522Z,3.40
2018-04-30T14:52:27.848Z,3.10
2018-04-30T14:54:56.251Z,1.23
2018-04-30T14:57:23.899Z,1.30
2018-04-30T14:59:52.329Z,1.47
2018-04-30T15:02:19.917Z,1.43
2018-04-30T15:04:48.133Z,1.10
2018-04-30T15:07:15.735Z,1.30
2018-04-30T15:09:43.391Z,1.93
2018-04-30T15:12:10.984Z,1.03
2018-04-30T15:14:39.398Z,1.20
2018-04-30T15:17:07.011Z,1.30
2018-04-30T15:19:36.203Z,1.33
2018-04-30T15:22:03.804Z,2.30
2018-04-30T15:24:32.222Z,1.40
2018-04-30T15:26:59.795Z,1.20
2018-04-30T15:29:27.456Z,1.70
2018-04-30T15:31:56.134Z,1.10
2018-04-30T15:34:23.780Z,1.00
2018-04-30T15:36:51.421Z,1.30
2018-04-30T15:39:19.055Z,1.33
2018-04-30T15:41:47.420Z,1.70
2018-04-30T15:44:15.050Z,1.57
2018-04-30T15:46:42.703Z,2.57
2018-04-30T15:49:10.342Z,1.83
2018-04-30T15:51:37.955Z,2.13
2018-04-30T15:54:05.648Z,1.90
2018-04-30T15:56:33.295Z,2.10
2018-04-30T15:59:00.917Z,1.10
2018-04-30T16:01:28.521Z,1.20
2018-04-30T16:03:56.193Z,1.60
2018-04-30T16:06:23.816Z,2.43
2018-04-30T16:08:52.267Z,2.63
2018-04-30T16:11:19.907Z,1.43
2018-04-30T16:13:47.718Z,1.20
2018-04-30T16:16:16.119Z,0.90
2018-04-30T16:18:44.524Z,1.37
2018-04-30T16:21:12.156Z,1.97
2018-04-30T16:23:40.566Z,1.00
2018-04-30T16:26:08.824Z,2.00
2018-04-30T16:28:37.250Z,1.70
2018-04-30T16:31:04.997Z,2.03
2018-04-30T16:33:32.681Z,1.50
2018-04-30T16:36:00.913Z,2.07
2018-04-30T16:38:28.559Z,2.40
2018-04-30T16:40:58.044Z,3.00
2018-04-30T16:43:25.816Z,2.57
2018-04-30T16:45:53.404Z,2.40
2018-04-30T16:48:21.024Z,2.47
2018-04-30T16:50:48.741Z,1.87
2018-04-30T16:53:16.380Z,1.70
2018-04-30T16:55:45.373Z,2.67
2018-04-30T16:58:13.756Z,1.90
2018-04-30T17:00:41.391Z,1.60
2018-04-30T17:03:09.024Z,2.03
2018-04-30T17:05:37.514Z,1.80
2018-04-30T17:08:05.098Z,1.57
2018-04-30T17:10:33.590Z,1.63
2018-04-30T17:13:01.265Z,1.60
2018-04-30T17:15:28.922Z,1.60
2018-04-30T17:17:56.545Z,1.90
2018-04-30T17:20:24.247Z,1.60
2018-04-30T17:22:51.895Z,1.83
2018-04-30T17:25:19.520Z,1.53
2018-04-30T17:27:50.181Z,1.93
2018-04-30T17:30:19.595Z,1.90
2018-04-30T17:32:47.198Z,2.40
2018-04-30T17:35:14.916Z,2.50
2018-04-30T17:37:42.666Z,1.80
2018-04-30T17:40:11.955Z,2.50
2018-04-30T17:42:40.359Z,2.30
2018-04-30T17:45:08.783Z,1.77
2018-04-30T17:47:37.163Z,2.40
2018-04-30T17:50:04.796Z,2.27
2018-04-30T17:52:32.454Z,2.10
2018-04-30T17:55:00.079Z,2.10
2018-04-30T17:57:28.453Z,2.47
2018-04-30T17:59:56.977Z,2.67
2018-04-30T18:02:24.567Z,2.43
2018-04-30T18:04:52.561Z,2.07
2018-04-30T18:07:20.973Z,2.40
2018-04-30T18:09:48.603Z,2.63
2018-04-30T18:12:16.228Z,2.93
2018-04-30T18:14:43.911Z,2.33
2018-04-30T18:17:11.540Z,2.20
2018-04-30T18:19:39.179Z,2.13
2018-04-30T18:22:06.859Z,3.37
2018-04-30T18:24:34.483Z,1.80
2018-04-30T18:27:02.133Z,2.57
2018-04-30T18:29:30.569Z,2.50
2018-04-30T18:31:58.156Z,2.83
2018-04-30T18:34:25.846Z,2.77
2018-04-30T18:36:53.527Z,3.87
2018-04-30T18:39:21.146Z,3.00
2018-04-30T18:41:48.756Z,2.90
2018-04-30T18:44:16.411Z,3.50
2018-04-30T18:46:44.051Z,3.50
2018-04-30T18:49:11.674Z,3.53
2018-04-30T18:51:39.347Z,2.60
2018-04-30T18:54:07.770Z,4.50
2018-04-30T18:56:35.408Z,4.23
2018-04-30T18:59:03.060Z,4.30
2018-04-30T19:01:31.418Z,4.27
2018-04-30T19:03:59.088Z,4.30
2018-04-30T19:06:27.523Z,4.00
2018-04-30T19:08:57.849Z,3.70
2018-04-30T19:11:25.863Z,4.60
2018-04-30T19:13:53.494Z,3.80
2018-04-30T19:16:21.119Z,3.73
2018-04-30T19:18:48.828Z,3.70
2018-04-30T19:21:20.189Z,4.23
2018-04-30T19:23:48.581Z,4.47
2018-04-30T19:26:16.989Z,4.73
2018-04-30T19:28:45.229Z,4.40
2018-04-30T19:31:12.981Z,3.97
2018-04-30T19:33:41.454Z,5.30
2018-04-30T19:36:09.086Z,4.60
2018-04-30T19:38:36.782Z,5.73
2018-04-30T19:41:04.501Z,5.13
2018-04-30T19:43:32.157Z,5.70
2018-04-30T19:45:59.777Z,4.70
2018-04-30T19:48:28.330Z,4.30
2018-04-30T19:50:56.011Z,4.60
2018-04-30T19:53:23.677Z,3.73
2018-04-30T19:55:52.119Z,3.70
2018-04-30T19:58:19.778Z,3.93
2018-04-30T20:00:47.803Z,3.53
2018-04-30T20:03:16.308Z,3.93
2018-04-30T20:05:44.080Z,4.20
2018-04-30T20:08:11.683Z,3.97
2018-04-30T20:10:39.305Z,4.20
2018-04-30T20:13:10.740Z,4.47
2018-04-30T20:15:38.420Z,4.53
2018-04-30T20:18:06.183Z,5.47
2018-04-30T20:20:33.964Z,5.37
2018-04-30T20:23:01.626Z,5.27
2018-04-30T20:25:30.173Z,4.73
2018-04-30T20:27:57.915Z,4.53
2018-04-30T20:30:25.583Z,4.37
2018-04-30T20:32:53.878Z,4.47
2018-04-30T20:35:21.575Z,3.80
2018-04-30T20:37:49.302Z,4.23
2018-04-30T20:40:17.020Z,3.60
2018-04-30T20:42:46.304Z,4.43
2018-04-30T20:45:14.754Z,5.37
2018-04-30T20:47:42.415Z,5.87
2018-04-30T20:50:10.036Z,6.50
2018-04-30T20:52:38.501Z,6.33
2018-04-30T20:55:06.868Z,5.90
2018-04-30T20:57:35.743Z,5.83
2018-04-30T21:00:03.660Z,5.90
2018-04-30T21:02:31.322Z,6.23
2018-04-30T21:04:59.821Z,5.70
2018-04-30T21:07:27.481Z,6.20
2018-04-30T21:09:55.063Z,5.57
2018-04-30T21:12:22.697Z,5.37
2018-04-30T21:14:50.349Z,5.17
2018-04-30T21:17:17.972Z,4.80
2018-04-30T21:19:46.493Z,4.90
2018-04-30T21:22:14.137Z,4.87
2018-04-30T21:24:43.172Z,4.90
2018-04-30T21:27:10.824Z,6.07
2018-04-30T21:29:38.489Z,5.10
2018-04-30T21:32:06.089Z,5.97
2018-04-30T21:34:33.772Z,5.77
2018-04-30T21:37:01.424Z,6.87
2018-04-30T21:39:29.857Z,6.33
2018-04-30T21:41:57.554Z,6.20
2018-04-30T21:44:25.947Z,6.63
2018-04-30T21:46:54.396Z,6.60
2018-04-30T21:49:22.013Z,5.97
2018-04-30T21:51:49.673Z,5.57
2018-04-30T21:54:17.263Z,4.77
2018-04-30T21:56:44.926Z,7.27
2018-04-30T21:59:12.556Z,5.30
2018-04-30T22:01:40.172Z,4.50
2018-04-30T22:04:08.026Z,4.10
2018-04-30T22:06:36.581Z,3.90
2018-04-30T22:09:04.269Z,4.07
2018-04-30T22:11:31.912Z,3.60
2018-04-30T22:13:59.559Z,4.30
2018-04-30T22:16:27.311Z,4.20
2018-04-30T22:18:54.909Z,4.70
2018-04-30T22:21:22.619Z,8.03
2018-04-30T22:23:50.266Z,8.70
2018-04-30T22:26:18.658Z,11.97
2018-04-30T22:28:46.329Z,14.80
2018-04-30T22:31:13.919Z,15.40
2018-04-30T22:33:41.576Z,8.23
2018-04-30T22:36:09.215Z,14.87
2018-04-30T22:38:36.865Z,24.83
2018-04-30T22:41:04.514Z,7.90
2018-04-30T22:43:32.188Z,9.23
2018-04-30T22:45:59.794Z,7.30
2018-04-30T22:48:27.523Z,5.70
2018-04-30T22:50:55.208Z,5.73
2018-04-30T22:53:22.959Z,6.33
2018-04-30T22:55:50.599Z,4.70
2018-04-30T22:58:18.249Z,4.37
2018-04-30T23:00:45.899Z,4.40
2018-04-30T23:03:14.449Z,4.13
2018-04-30T23:05:43.270Z,4.10
2018-04-30T23:08:12.733Z,4.30
2018-04-30T23:10:40.493Z,4.37
2018-04-30T23:13:08.285Z,5.07
2018-04-30T23:15:36.666Z,6.43
2018-04-30T23:18:04.377Z,5.07
2018-04-30T23:20:32.024Z,4.40
2018-04-30T23:22:59.608Z,4.60
2018-04-30T23:25:27.270Z,4.77
2018-04-30T23:27:54.862Z,4.77
2018-04-30T23:30:23.259Z,5.27
2018-04-30T23:32:50.892Z,5.13
2018-04-30T23:35:18.473Z,5.10
2018-04-30T23:37:46.911Z,5.70
2018-04-30T23:40:14.535Z,5.57
2018-04-30T23:42:42.724Z,6.07
2018-04-30T23:45:10.334Z,6.03
2018-04-30T23:47:37.987Z,5.83
2018-04-30T23:50:05.622Z,6.20
2018-04-30T23:52:33.358Z,6.10
2018-04-30T23:55:01.183Z,6.03
2018-04-30T23:57:29.576Z,6.10
2018-04-30T23:59:57.980Z,6.20
